UKLR/RWN METAR and TAF weather

Enter ICAO airport designator
Station Type Date Time Source
UKLR METAR 2019/12/08 15:00 UTC NOAA

UKLR 081500Z 19003MPS CAVOK 03/01 Q1011 R29/190060 NOSIG


Station Type Date Time Source
UKLR Decoded METAR 2019/12/08 15:00 UTC NOAA

Rivne, Ukraine (UKLR) 50-35N 026-08E
Dec 08, 2019 - 10:00 AM EST / 2019.12.08 1500 UTC
Wind: from the S (190 degrees) at 7 MPH (6 KT):0
Visibility: greater than 7 mile(s):0
Temperature: 37 F (3 C)
Dew Point: 33 F (1 C)
Relative Humidity: 86%
Pressure (altimeter): 29.85 in. Hg (1011 hPa)
ob: UKLR 081500Z 19003MPS CAVOK 03/01 Q1011 R29/190060 NOSIG
cycle: 15

Station Type Date Time Source
UKLR TAF 2019/08/16 12:15 UTC NOAA

TAF TAF UKLR 161105Z 1612/1821 35003MPS 9999 BKN020 SCT023CB

Example: see airport list